Time;durP1;ratioP1;P1;durP2;ratioP2;P2;SDS_P1;SDS_P2;PMS_P1;PMS_P2;Temp;Humidity;BMP_temperature;BMP_pressure;BME280_temperature;BME280_humidity;BME280_pressure;Samples;Min_cycle;Max_cycle;Signal;HPM_P1;HPM_P2
2023/04/11 00:02:17;;;;;;;24.77;4.93;;;;;;;;;;4987021;28;20218;-69
2023/04/11 00:04:43;;;;;;;25.47;5.23;;;;;;;;;;4983061;28;20209;-68
2023/04/11 00:07:08;;;;;;;32.03;5.40;;;;;;;;;;4989587;28;20171;-68
2023/04/11 00:09:33;;;;;;;24.87;4.23;;;;;;;;;;4990750;28;20209;-69
2023/04/11 00:12:00;;;;;;;18.63;4.90;;;;;;;;;;4992434;28;20657;-69
2023/04/11 00:14:27;;;;;;;22.07;4.23;;;;;;;;;;4992305;28;20549;-68
2023/04/11 00:16:52;;;;;;;30.83;5.20;;;;;;;;;;4992161;28;20196;-69
2023/04/11 00:19:22;;;;;;;30.47;5.17;;;;;;;;;;4990827;28;20183;-69
2023/04/11 00:21:47;;;;;;;21.53;5.30;;;;;;;;;;4984868;28;20191;-69
2023/04/11 00:24:12;;;;;;;24.97;4.70;;;;;;;;;;4985393;28;20203;-69
2023/04/11 00:26:37;;;;;;;21.50;4.93;;;;;;;;;;4985668;28;20180;-68
2023/04/11 00:29:02;;;;;;;24.00;4.57;;;;;;;;;;4984499;28;20207;-69
2023/04/11 00:31:28;;;;;;;28.10;3.93;;;;;;;;;;4985211;28;20190;-69
2023/04/11 00:33:53;;;;;;;25.43;4.70;;;;;;;;;;4987474;28;20171;-69
2023/04/11 00:36:18;;;;;;;25.53;3.80;;;;;;;;;;4986200;28;20205;-69
2023/04/11 00:38:45;;;;;;;21.40;4.33;;;;;;;;;;4979366;28;20654;-69
2023/04/11 00:41:10;;;;;;;31.90;6.47;;;;;;;;;;4989029;28;20238;-69
2023/04/11 00:43:36;;;;;;;27.80;4.57;;;;;;;;;;4990168;28;20167;-69
2023/04/11 00:46:02;;;;;;;17.63;3.33;;;;;;;;;;4990758;28;20219;-69
2023/04/11 00:48:27;;;;;;;27.87;4.07;;;;;;;;;;4991521;28;20203;-69
2023/04/11 00:50:53;;;;;;;28.80;4.20;;;;;;;;;;4989202;28;20204;-69
2023/04/11 00:53:18;;;;;;;29.87;4.20;;;;;;;;;;4991803;28;20184;-69
2023/04/11 00:55:44;;;;;;;18.30;4.33;;;;;;;;;;4991419;28;20750;-68
2023/04/11 00:58:09;;;;;;;21.53;4.53;;;;;;;;;;4983694;28;20195;-68
2023/04/11 01:00:34;;;;;;;27.27;4.13;;;;;;;;;;4989267;28;20267;-69
2023/04/11 01:03:00;;;;;;;22.63;4.00;;;;;;;;;;4986227;28;20234;-69
2023/04/11 01:05:26;;;;;;;23.40;4.97;;;;;;;;;;4991157;28;20218;-69
2023/04/11 01:07:53;;;;;;;11.80;3.07;;;;;;;;;;4991398;28;20222;-69
2023/04/11 01:10:19;;;;;;;18.97;3.43;;;;;;;;;;4991711;28;20182;-69
2023/04/11 01:12:44;;;;;;;21.97;4.03;;;;;;;;;;4985291;28;20184;-69
2023/04/11 01:15:09;;;;;;;14.80;2.93;;;;;;;;;;4987178;28;20285;-69
2023/04/11 01:17:35;;;;;;;9.83;2.50;;;;;;;;;;4978513;28;20204;-69
2023/04/11 01:20:00;;;;;;;15.87;3.07;;;;;;;;;;4987502;28;20349;-68
2023/04/11 01:22:26;;;;;;;16.83;3.67;;;;;;;;;;4981218;28;21053;-69
2023/04/11 01:24:52;;;;;;;13.27;2.73;;;;;;;;;;4977387;28;20749;-68
2023/04/11 01:27:18;;;;;;;25.10;3.07;;;;;;;;;;4983108;28;20187;-69
2023/04/11 01:29:43;;;;;;;16.10;3.07;;;;;;;;;;4984137;28;20669;-69
2023/04/11 01:32:08;;;;;;;18.73;3.37;;;;;;;;;;4987622;28;20183;-69
2023/04/11 01:34:34;;;;;;;16.50;3.17;;;;;;;;;;4978592;28;20264;-68
2023/04/11 01:37:00;;;;;;;9.50;2.60;;;;;;;;;;4983246;28;20254;-69
2023/04/11 01:39:25;;;;;;;14.13;2.73;;;;;;;;;;4986390;28;20176;-68
2023/04/11 01:41:51;;;;;;;11.37;2.90;;;;;;;;;;4980365;28;20530;-68
2023/04/11 01:44:17;;;;;;;16.10;2.63;;;;;;;;;;4985527;28;20203;-68
2023/04/11 01:46:43;;;;;;;20.33;4.63;;;;;;;;;;4990985;28;20183;-68
2023/04/11 01:49:08;;;;;;;14.87;3.17;;;;;;;;;;4991306;28;20346;-67
2023/04/11 01:51:33;;;;;;;17.93;3.07;;;;;;;;;;4989656;28;20673;-67
2023/04/11 01:53:59;;;;;;;9.40;2.27;;;;;;;;;;4991297;28;20692;-68
2023/04/11 01:56:24;;;;;;;12.60;3.10;;;;;;;;;;4989655;28;20203;-68
2023/04/11 01:58:49;;;;;;;10.00;2.20;;;;;;;;;;4991170;28;20523;-67
2023/04/11 02:01:18;;;;;;;8.97;1.97;;;;;;;;;;4990723;28;20183;-68
2023/04/11 02:03:44;;;;;;;10.00;2.60;;;;;;;;;;4987616;28;20573;-68
2023/04/11 02:06:09;;;;;;;10.00;1.90;;;;;;;;;;4993347;28;20199;-68
2023/04/11 02:08:34;;;;;;;12.60;2.77;;;;;;;;;;4988793;28;20184;-68
2023/04/11 02:11:00;;;;;;;10.40;1.87;;;;;;;;;;4994871;28;20190;-68
2023/04/11 02:13:25;;;;;;;8.73;1.47;;;;;;;;;;4985458;28;20187;-67
2023/04/11 02:15:50;;;;;;;5.87;1.70;;;;;;;;;;4990692;28;20204;-68
2023/04/11 02:18:15;;;;;;;6.93;1.50;;;;;;;;;;4986458;28;20187;-68
2023/04/11 02:20:40;;;;;;;7.07;2.00;;;;;;;;;;4989845;28;20172;-69
2023/04/11 02:23:06;;;;;;;7.37;1.60;;;;;;;;;;4985718;28;20237;-68
2023/04/11 02:25:31;;;;;;;7.20;1.17;;;;;;;;;;4981686;28;20279;-68
2023/04/11 02:27:56;;;;;;;9.30;2.10;;;;;;;;;;4990141;28;20188;-68
2023/04/11 02:30:22;;;;;;;9.43;1.83;;;;;;;;;;4984100;28;20270;-67
2023/04/11 02:32:48;;;;;;;7.77;1.70;;;;;;;;;;4988502;28;20559;-68
2023/04/11 02:35:13;;;;;;;12.37;2.63;;;;;;;;;;4993677;28;20203;-67
2023/04/11 02:37:38;;;;;;;12.03;1.80;;;;;;;;;;4994114;28;20196;-68
2023/04/11 02:40:04;;;;;;;6.27;1.27;;;;;;;;;;4993607;28;20551;-68
2023/04/11 02:42:29;;;;;;;7.83;2.03;;;;;;;;;;4985753;28;20219;-68
2023/04/11 02:44:55;;;;;;;8.10;2.03;;;;;;;;;;4993608;28;20199;-68
2023/04/11 02:47:20;;;;;;;5.70;1.20;;;;;;;;;;4993705;28;20642;-68
2023/04/11 02:49:45;;;;;;;12.17;1.50;;;;;;;;;;4991556;28;20626;-68
2023/04/11 02:52:10;;;;;;;11.13;1.50;;;;;;;;;;4991928;28;20203;-68
2023/04/11 02:54:36;;;;;;;8.93;1.90;;;;;;;;;;4993611;28;20204;-68
2023/04/11 02:57:01;;;;;;;5.67;1.43;;;;;;;;;;4990704;28;20206;-68
2023/04/11 02:59:26;;;;;;;6.60;1.73;;;;;;;;;;4986626;28;20202;-68
2023/04/11 03:01:58;;;;;;;7.37;1.60;;;;;;;;;;4989005;28;20176;-68
2023/04/11 03:04:24;;;;;;;7.97;1.77;;;;;;;;;;5000315;23;20268;-77
2023/04/11 03:06:49;;;;;;;6.90;1.47;;;;;;;;;;4993237;28;20573;-74
2023/04/11 03:09:14;;;;;;;6.47;1.67;;;;;;;;;;4994301;28;20179;-76
2023/04/11 03:11:39;;;;;;;10.77;2.23;;;;;;;;;;4994753;28;20186;-75
2023/04/11 03:14:05;;;;;;;6.43;1.83;;;;;;;;;;4992367;28;20180;-77
2023/04/11 03:16:30;;;;;;;5.40;1.40;;;;;;;;;;4985716;28;20239;-76
2023/04/11 03:18:57;;;;;;;5.00;1.30;;;;;;;;;;4991434;28;20208;-76
2023/04/11 03:21:22;;;;;;;9.87;1.60;;;;;;;;;;4987526;28;20164;-76
2023/04/11 03:23:48;;;;;;;7.70;1.47;;;;;;;;;;4991372;28;20176;-75
2023/04/11 03:26:13;;;;;;;8.73;1.50;;;;;;;;;;4979185;28;20222;-73
2023/04/11 03:28:38;;;;;;;6.67;1.63;;;;;;;;;;4989519;28;20204;-75
2023/04/11 03:31:04;;;;;;;9.03;1.33;;;;;;;;;;4986235;28;20191;-76
2023/04/11 03:33:29;;;;;;;7.07;1.43;;;;;;;;;;4992697;28;20206;-76
2023/04/11 03:35:54;;;;;;;7.20;1.37;;;;;;;;;;4992464;28;20766;-75
2023/04/11 03:38:20;;;;;;;5.90;1.53;;;;;;;;;;4983752;28;20180;-74
2023/04/11 03:40:45;;;;;;;6.00;1.70;;;;;;;;;;4989298;28;20176;-75
2023/04/11 03:43:10;;;;;;;4.70;1.60;;;;;;;;;;4992963;28;20179;-75
2023/04/11 03:45:35;;;;;;;13.03;1.87;;;;;;;;;;4983182;28;20211;-75
2023/04/11 03:48:00;;;;;;;12.60;1.70;;;;;;;;;;4991961;28;20199;-75
2023/04/11 03:50:26;;;;;;;9.57;1.57;;;;;;;;;;4985123;28;20724;-75
2023/04/11 03:52:51;;;;;;;15.40;1.93;;;;;;;;;;4991564;28;20183;-75
2023/04/11 03:55:17;;;;;;;5.23;1.37;;;;;;;;;;4987203;28;20279;-75
2023/04/11 03:57:42;;;;;;;7.97;1.57;;;;;;;;;;4989609;28;20182;-75
2023/04/11 04:00:09;;;;;;;6.97;2.43;;;;;;;;;;4986775;28;20191;-75
2023/04/11 04:02:34;;;;;;;7.33;1.57;;;;;;;;;;4983648;28;20198;-74
2023/04/11 04:05:00;;;;;;;5.17;1.93;;;;;;;;;;4986305;28;20211;-75
2023/04/11 04:07:26;;;;;;;8.20;1.83;;;;;;;;;;4986098;28;20200;-75
2023/04/11 04:09:51;;;;;;;5.03;1.40;;;;;;;;;;4988124;28;20176;-74
2023/04/11 04:12:17;;;;;;;5.93;1.53;;;;;;;;;;4989628;28;20241;-75
2023/04/11 04:14:43;;;;;;;10.23;1.87;;;;;;;;;;4982745;28;20195;-75
2023/04/11 04:17:08;;;;;;;9.77;1.80;;;;;;;;;;4985509;28;20184;-76
2023/04/11 04:19:33;;;;;;;17.00;1.83;;;;;;;;;;4981713;28;20190;-75
2023/04/11 04:21:59;;;;;;;3.90;1.10;;;;;;;;;;4983884;28;20184;-74
2023/04/11 04:24:28;;;;;;;6.77;1.20;;;;;;;;;;4981167;28;20755;-76
2023/04/11 04:26:56;;;;;;;6.20;1.37;;;;;;;;;;4983692;28;20688;-75
2023/04/11 04:29:21;;;;;;;10.87;1.50;;;;;;;;;;4987066;28;20179;-76
2023/04/11 04:31:49;;;;;;;5.93;1.83;;;;;;;;;;4988170;28;20187;-76
2023/04/11 04:34:20;;;;;;;5.43;1.53;;;;;;;;;;4993157;28;20225;-75
2023/04/11 04:36:46;;;;;;;8.00;1.30;;;;;;;;;;4985082;28;20622;-75
2023/04/11 04:39:18;;;;;;;8.33;1.53;;;;;;;;;;4979233;28;20212;-75
2023/04/11 04:41:44;;;;;;;6.47;1.83;;;;;;;;;;4981708;28;20267;-75
2023/04/11 04:44:10;;;;;;;6.40;1.20;;;;;;;;;;4980777;28;20256;-75
2023/04/11 04:46:35;;;;;;;5.53;1.10;;;;;;;;;;4995669;28;20211;-76
2023/04/11 04:49:02;;;;;;;2.63;0.90;;;;;;;;;;4994404;28;20238;-75
2023/04/11 04:51:29;;;;;;;4.20;1.40;;;;;;;;;;4987175;28;20172;-75
2023/04/11 04:53:56;;;;;;;5.23;1.10;;;;;;;;;;4993858;28;20203;-75
2023/04/11 04:56:21;;;;;;;5.60;1.00;;;;;;;;;;4992542;28;20203;-77
2023/04/11 04:58:46;;;;;;;2.57;1.07;;;;;;;;;;4993904;28;20182;-75
2023/04/11 05:01:11;;;;;;;6.70;1.30;;;;;;;;;;4991981;28;20187;-75
2023/04/11 05:03:37;;;;;;;7.47;1.50;;;;;;;;;;4992412;28;20175;-77
2023/04/11 05:06:02;;;;;;;6.17;1.47;;;;;;;;;;4991540;28;20238;-75
2023/04/11 05:08:27;;;;;;;6.30;0.83;;;;;;;;;;4993517;28;20168;-75
2023/04/11 05:10:53;;;;;;;4.80;2.03;;;;;;;;;;4986540;28;20175;-75
2023/04/11 05:13:18;;;;;;;3.60;0.63;;;;;;;;;;4992532;28;20187;-75
2023/04/11 05:15:47;;;;;;;6.30;1.07;;;;;;;;;;4992995;28;20578;-75
2023/04/11 05:18:12;;;;;;;7.33;1.37;;;;;;;;;;4988959;28;20187;-74
2023/04/11 05:20:38;;;;;;;8.83;1.43;;;;;;;;;;4988689;28;20179;-75
2023/04/11 05:23:03;;;;;;;8.53;2.07;;;;;;;;;;5002231;28;20199;-73
2023/04/11 05:25:28;;;;;;;8.73;0.93;;;;;;;;;;5012040;28;20196;-73
2023/04/11 05:27:54;;;;;;;4.63;0.80;;;;;;;;;;4989169;28;20223;-76
2023/04/11 05:30:19;;;;;;;3.23;1.13;;;;;;;;;;4989223;28;20184;-75
2023/04/11 05:32:45;;;;;;;2.40;1.00;;;;;;;;;;4982099;28;20195;-76
2023/04/11 05:35:10;;;;;;;14.70;1.70;;;;;;;;;;4992282;28;20204;-76
2023/04/11 05:37:36;;;;;;;2.63;0.80;;;;;;;;;;4984595;28;20176;-75
2023/04/11 05:40:01;;;;;;;6.83;1.30;;;;;;;;;;4994538;28;20180;-76
2023/04/11 05:42:26;;;;;;;7.80;1.80;;;;;;;;;;4995522;28;20238;-76
2023/04/11 05:44:52;;;;;;;9.13;2.27;;;;;;;;;;4996424;28;20192;-74
2023/04/11 05:47:17;;;;;;;2.73;1.10;;;;;;;;;;4997026;28;20192;-76
2023/04/11 05:49:42;;;;;;;6.23;1.27;;;;;;;;;;4995048;28;20234;-75
2023/04/11 05:52:07;;;;;;;4.97;1.07;;;;;;;;;;4994817;28;20241;-76
2023/04/11 05:54:34;;;;;;;9.80;1.57;;;;;;;;;;4996120;28;20239;-76
2023/04/11 05:57:00;;;;;;;4.70;1.50;;;;;;;;;;4996436;28;20176;-75
2023/04/11 05:59:27;;;;;;;3.57;0.97;;;;;;;;;;4995992;28;20175;-76
2023/04/11 06:01:53;;;;;;;8.33;1.30;;;;;;;;;;4987007;28;20242;-75
2023/04/11 06:04:18;;;;;;;7.57;1.40;;;;;;;;;;4990768;28;20215;-75
2023/04/11 06:06:44;;;;;;;4.47;1.57;;;;;;;;;;4990451;28;20211;-75
2023/04/11 06:09:09;;;;;;;6.10;1.63;;;;;;;;;;4994958;28;20172;-76
2023/04/11 06:11:35;;;;;;;4.67;2.17;;;;;;;;;;4996350;28;20562;-75
2023/04/11 06:14:00;;;;;;;8.23;1.37;;;;;;;;;;4994770;28;20182;-75
2023/04/11 06:16:25;;;;;;;7.77;1.10;;;;;;;;;;4993981;28;20294;-75
2023/04/11 06:18:50;;;;;;;2.90;1.07;;;;;;;;;;4995789;28;20215;-75
2023/04/11 06:21:15;;;;;;;5.60;1.37;;;;;;;;;;4992248;28;20638;-75
2023/04/11 06:23:41;;;;;;;5.73;1.67;;;;;;;;;;4992225;28;20205;-75
2023/04/11 06:26:06;;;;;;;6.43;2.10;;;;;;;;;;4995400;28;20566;-75
2023/04/11 06:28:31;;;;;;;8.87;1.57;;;;;;;;;;4990138;28;20187;-75
2023/04/11 06:30:56;;;;;;;6.63;1.37;;;;;;;;;;4993118;28;20180;-76
2023/04/11 06:33:22;;;;;;;9.47;1.43;;;;;;;;;;4992821;28;20183;-77
2023/04/11 06:35:47;;;;;;;7.43;1.60;;;;;;;;;;4991748;28;20275;-74
2023/04/11 06:38:12;;;;;;;7.83;1.77;;;;;;;;;;4992523;28;20202;-76
2023/04/11 06:40:37;;;;;;;7.80;1.47;;;;;;;;;;4994343;28;20179;-77
2023/04/11 06:43:02;;;;;;;7.43;1.73;;;;;;;;;;4993953;28;20184;-75
2023/04/11 06:45:28;;;;;;;9.67;2.07;;;;;;;;;;4997398;28;20344;-76
2023/04/11 06:47:53;;;;;;;4.93;1.30;;;;;;;;;;4987674;28;20246;-76
2023/04/11 06:50:18;;;;;;;5.23;1.40;;;;;;;;;;4994979;28;20172;-77
2023/04/11 06:52:43;;;;;;;6.10;1.70;;;;;;;;;;4990515;28;20191;-74
2023/04/11 06:55:10;;;;;;;8.17;1.60;;;;;;;;;;4992196;28;20199;-74
2023/04/11 06:57:36;;;;;;;10.73;1.40;;;;;;;;;;4998567;28;20179;-75
2023/04/11 07:00:03;;;;;;;3.53;1.40;;;;;;;;;;4994555;28;20547;-75
2023/04/11 07:02:28;;;;;;;7.43;1.10;;;;;;;;;;4987115;28;20207;-75
2023/04/11 07:04:53;;;;;;;5.33;1.50;;;;;;;;;;4983280;28;20720;-74
2023/04/11 07:07:18;;;;;;;6.27;1.20;;;;;;;;;;4994704;28;20214;-74
2023/04/11 07:09:45;;;;;;;6.17;1.53;;;;;;;;;;4993738;28;20176;-75
2023/04/11 07:12:11;;;;;;;2.97;1.20;;;;;;;;;;4993686;28;20206;-75
2023/04/11 07:14:36;;;;;;;5.97;1.77;;;;;;;;;;4994808;28;20195;-75
2023/04/11 07:17:01;;;;;;;8.63;1.70;;;;;;;;;;4994866;28;20198;-75
2023/04/11 07:19:27;;;;;;;7.57;1.67;;;;;;;;;;4994587;28;20234;-73
2023/04/11 07:21:52;;;;;;;6.43;1.63;;;;;;;;;;4999390;28;20192;-75
2023/04/11 07:24:17;;;;;;;3.40;1.27;;;;;;;;;;4994302;28;20211;-75
2023/04/11 07:26:45;;;;;;;7.63;1.57;;;;;;;;;;4996825;28;20188;-76
2023/04/11 07:29:10;;;;;;;9.07;2.00;;;;;;;;;;4993832;28;20183;-75
2023/04/11 07:31:35;;;;;;;8.93;1.57;;;;;;;;;;4994674;28;20202;-75
2023/04/11 07:34:00;;;;;;;8.20;1.37;;;;;;;;;;4992846;28;20175;-75
2023/04/11 07:36:26;;;;;;;8.20;1.53;;;;;;;;;;4993817;28;20246;-75
2023/04/11 07:38:51;;;;;;;4.00;1.50;;;;;;;;;;5000796;28;20172;-75
2023/04/11 07:41:16;;;;;;;4.60;1.47;;;;;;;;;;4994135;28;20226;-75
2023/04/11 07:43:42;;;;;;;6.50;1.20;;;;;;;;;;4992870;28;20211;-75
2023/04/11 07:46:07;;;;;;;5.07;1.03;;;;;;;;;;4991875;28;20208;-74
2023/04/11 07:48:32;;;;;;;8.10;1.33;;;;;;;;;;4993896;28;20183;-74
2023/04/11 07:50:57;;;;;;;6.17;1.50;;;;;;;;;;4993450;28;20180;-75
2023/04/11 07:53:23;;;;;;;6.33;1.30;;;;;;;;;;4993774;28;20539;-74
2023/04/11 07:55:48;;;;;;;5.47;1.10;;;;;;;;;;4993184;28;20227;-75
2023/04/11 07:58:13;;;;;;;8.13;1.87;;;;;;;;;;4992513;28;20741;-74
2023/04/11 08:00:38;;;;;;;7.65;0.93;;;;;;;;;;4993259;28;20180;-76
2023/04/11 08:03:04;;;;;;;6.20;1.53;;;;;;;;;;4997988;28;20179;-74
2023/04/11 08:05:30;;;;;;;5.30;0.90;;;;;;;;;;4983539;28;20247;-73
2023/04/11 08:07:55;;;;;;;5.20;1.17;;;;;;;;;;4992843;28;20243;-74
2023/04/11 08:10:20;;;;;;;6.67;1.17;;;;;;;;;;4992256;28;20176;-74
2023/04/11 08:12:45;;;;;;;5.53;0.90;;;;;;;;;;4983760;28;20203;-71
2023/04/11 08:15:11;;;;;;;9.13;1.60;;;;;;;;;;4993128;28;20279;-73
2023/04/11 08:17:37;;;;;;;5.27;1.03;;;;;;;;;;4992681;28;20242;-72
2023/04/11 08:20:04;;;;;;;10.27;2.13;;;;;;;;;;4992899;28;20195;-71
2023/04/11 08:22:31;;;;;;;5.70;1.58;;;;;;;;;;4997590;28;20688;-73
2023/04/11 08:24:57;;;;;;;3.97;1.10;;;;;;;;;;4991925;28;20267;-72
2023/04/11 08:27:22;;;;;;;6.77;1.20;;;;;;;;;;4993416;28;20299;-73
2023/04/11 08:29:47;;;;;;;10.27;1.47;;;;;;;;;;4991251;28;20255;-73
2023/04/11 08:32:12;;;;;;;10.40;1.33;;;;;;;;;;4979707;28;20217;-74
2023/04/11 08:34:37;;;;;;;5.57;1.25;;;;;;;;;;4992614;28;20710;-73
2023/04/11 08:37:03;;;;;;;10.37;1.80;;;;;;;;;;4992769;28;20187;-73
2023/04/11 08:39:28;;;;;;;6.20;2.07;;;;;;;;;;4993301;28;20191;-73
2023/04/11 08:41:53;;;;;;;3.93;1.27;;;;;;;;;;4993275;28;20172;-72
2023/04/11 08:44:19;;;;;;;9.10;1.53;;;;;;;;;;4993043;28;20254;-73
2023/04/11 08:46:44;;;;;;;8.90;1.77;;;;;;;;;;4991593;28;20240;-72
2023/04/11 08:49:09;;;;;;;9.30;0.90;;;;;;;;;;4992446;28;20171;-73
2023/04/11 08:51:35;;;;;;;5.17;1.10;;;;;;;;;;4992189;28;20210;-74
2023/04/11 08:54:04;;;;;;;6.05;1.27;;;;;;;;;;4992415;28;20199;-73
2023/04/11 08:56:29;;;;;;;6.85;1.80;;;;;;;;;;4989962;28;20211;-73
2023/04/11 08:58:55;;;;;;;5.87;1.67;;;;;;;;;;4992405;28;20179;-73
2023/04/11 09:01:35;;;;;;;5.78;1.00;;;;;;;;;;4991170;28;20202;-73
2023/04/11 09:04:03;;;;;;;3.55;0.93;;;;;;;;;;4987743;28;20187;-72
2023/04/11 09:06:32;;;;;;;4.80;1.15;;;;;;;;;;5003129;23;20236;-67
2023/04/11 09:08:58;;;;;;;7.85;0.93;;;;;;;;;;4978992;28;20558;-67
2023/04/11 09:11:24;;;;;;;2.30;1.00;;;;;;;;;;4984254;28;20263;-68
2023/04/11 09:14:03;;;;;;;3.42;1.05;;;;;;;;;;4975783;28;20263;-68
2023/04/11 09:16:28;;;;;;;3.08;0.80;;;;;;;;;;4972326;28;20211;-67
2023/04/11 09:18:54;;;;;;;4.57;1.52;;;;;;;;;;4972093;28;20173;-68
2023/04/11 09:21:19;;;;;;;3.00;1.25;;;;;;;;;;4971014;28;20183;-67
2023/04/11 09:23:44;;;;;;;2.28;0.90;;;;;;;;;;4969562;28;20184;-67
2023/04/11 09:26:10;;;;;;;3.53;1.50;;;;;;;;;;4986871;28;20208;-67
2023/04/11 09:28:43;;;;;;;3.92;1.15;;;;;;;;;;4971502;28;20176;-67
2023/04/11 09:31:09;;;;;;;2.58;0.95;;;;;;;;;;4972232;28;20168;-67
2023/04/11 09:33:34;;;;;;;5.70;1.00;;;;;;;;;;4969738;28;20311;-67
2023/04/11 09:35:59;;;;;;;6.47;1.13;;;;;;;;;;4968869;28;20307;-67
2023/04/11 09:38:35;;;;;;;2.13;1.00;;;;;;;;;;4972627;28;20172;-68
2023/04/11 09:41:01;;;;;;;3.50;0.80;;;;;;;;;;4971786;28;20188;-68
2023/04/11 09:43:26;;;;;;;3.25;0.80;;;;;;;;;;4972111;28;20177;-67
2023/04/11 09:46:10;;;;;;;5.32;0.93;;;;;;;;;;4971970;28;20569;-68
2023/04/11 09:48:36;;;;;;;2.20;0.80;;;;;;;;;;4967653;28;20176;-68
2023/04/11 09:51:05;;;;;;;3.28;0.90;;;;;;;;;;4972449;28;20169;-68
2023/04/11 09:53:33;;;;;;;4.18;0.88;;;;;;;;;;4982951;28;20175;-68
2023/04/11 09:55:58;;;;;;;2.70;0.80;;;;;;;;;;4972139;28;20218;-68
2023/04/11 09:58:23;;;;;;;5.47;1.00;;;;;;;;;;4986552;28;20215;-68
2023/04/11 10:00:48;;;;;;;4.35;0.90;;;;;;;;;;4972473;28;20173;-67
2023/04/11 10:03:15;;;;;;;7.68;0.93;;;;;;;;;;4983070;28;20173;-68
2023/04/11 10:05:40;;;;;;;7.07;0.88;;;;;;;;;;4969600;28;20259;-68
2023/04/11 10:08:24;;;;;;;4.47;0.73;;;;;;;;;;4971666;28;20703;-68
2023/04/11 10:10:51;;;;;;;6.88;0.90;;;;;;;;;;4972131;28;20172;-67
2023/04/11 10:13:35;;;;;;;6.57;0.95;;;;;;;;;;4968482;28;20180;-68
2023/04/11 10:16:07;;;;;;;7.25;2.08;;;;;;;;;;4971679;28;20189;-67
2023/04/11 10:18:32;;;;;;;2.17;0.60;;;;;;;;;;4971555;28;20263;-68
2023/04/11 10:20:58;;;;;;;2.78;0.77;;;;;;;;;;4971624;28;20274;-68
2023/04/11 10:23:23;;;;;;;7.53;1.30;;;;;;;;;;4971586;28;20172;-68
2023/04/11 10:25:58;;;;;;;4.00;0.82;;;;;;;;;;4974814;28;20195;-68
2023/04/11 10:28:39;;;;;;;1.98;0.52;;;;;;;;;;4974235;28;20680;-68
2023/04/11 10:31:08;;;;;;;6.45;1.60;;;;;;;;;;4973485;28;20650;-68
2023/04/11 10:33:34;;;;;;;3.10;1.65;;;;;;;;;;4973534;28;20176;-68
2023/04/11 10:36:10;;;;;;;3.03;1.23;;;;;;;;;;4973379;28;20200;-68
2023/04/11 10:38:47;;;;;;;4.15;1.00;;;;;;;;;;4974421;28;20634;-68
2023/04/11 10:41:32;;;;;;;5.80;1.02;;;;;;;;;;4975005;28;20246;-68
2023/04/11 10:44:14;;;;;;;4.72;0.90;;;;;;;;;;4973954;28;20191;-68
2023/04/11 10:46:46;;;;;;;3.90;0.98;;;;;;;;;;4974458;28;20760;-68
2023/04/11 10:49:12;;;;;;;5.22;1.35;;;;;;;;;;4973141;28;20180;-68
2023/04/11 10:51:37;;;;;;;2.67;0.70;;;;;;;;;;4973274;28;20179;-68
2023/04/11 10:54:02;;;;;;;2.90;0.85;;;;;;;;;;4974359;28;20184;-68
2023/04/11 10:56:44;;;;;;;4.38;1.20;;;;;;;;;;4974877;28;20335;-68
2023/04/11 10:59:28;;;;;;;3.03;1.42;;;;;;;;;;4974264;28;20176;-68
2023/04/11 11:01:53;;;;;;;4.18;0.75;;;;;;;;;;4970887;28;20203;-68
2023/04/11 11:04:19;;;;;;;4.90;0.90;;;;;;;;;;4974369;28;20681;-68
2023/04/11 11:06:45;;;;;;;3.63;1.38;;;;;;;;;;4974192;28;20212;-68
2023/04/11 11:09:22;;;;;;;6.78;1.05;;;;;;;;;;4987685;28;20235;-68
2023/04/11 11:12:03;;;;;;;3.53;1.10;;;;;;;;;;4971222;28;20554;-68
2023/04/11 11:14:29;;;;;;;3.78;1.08;;;;;;;;;;4972283;28;20172;-68
2023/04/11 11:16:54;;;;;;;3.03;0.95;;;;;;;;;;4974375;28;20192;-68
2023/04/11 11:19:19;;;;;;;5.03;1.55;;;;;;;;;;4974195;28;20220;-68
2023/04/11 11:21:44;;;;;;;7.03;1.48;;;;;;;;;;4973840;28;20196;-68
2023/04/11 11:24:10;;;;;;;7.55;1.05;;;;;;;;;;4974104;28;20204;-68
2023/04/11 11:26:42;;;;;;;7.07;1.48;;;;;;;;;;4987586;28;20295;-68
2023/04/11 11:29:08;;;;;;;7.43;1.60;;;;;;;;;;4973915;28;20227;-68
2023/04/11 11:31:34;;;;;;;4.10;1.20;;;;;;;;;;4973510;28;20172;-67
2023/04/11 11:34:00;;;;;;;3.88;1.35;;;;;;;;;;4973852;28;20180;-68
2023/04/11 11:36:25;;;;;;;4.63;1.00;;;;;;;;;;4966553;28;20204;-68
2023/04/11 11:38:50;;;;;;;5.00;1.48;;;;;;;;;;4971096;28;20184;-66
2023/04/11 11:41:15;;;;;;;2.80;0.95;;;;;;;;;;4972608;28;20278;-67
2023/04/11 11:43:40;;;;;;;5.47;1.27;;;;;;;;;;4972627;28;20191;-66
2023/04/11 11:46:07;;;;;;;4.13;0.93;;;;;;;;;;4973498;28;20197;-67
2023/04/11 11:48:33;;;;;;;6.68;1.42;;;;;;;;;;4973451;28;20626;-67
2023/04/11 11:50:59;;;;;;;4.25;1.40;;;;;;;;;;4973473;28;20200;-67
2023/04/11 11:53:27;;;;;;;6.60;1.30;;;;;;;;;;4973514;28;20247;-67
2023/04/11 11:55:53;;;;;;;4.45;1.40;;;;;;;;;;4974309;28;20189;-66
2023/04/11 11:58:18;;;;;;;9.07;2.10;;;;;;;;;;4979686;28;20176;-67
2023/04/11 12:00:47;;;;;;;3.92;1.20;;;;;;;;;;4971739;28;20176;-67
2023/04/11 12:03:16;;;;;;;7.50;1.52;;;;;;;;;;4967980;28;20176;-66
2023/04/11 12:05:43;;;;;;;10.70;1.75;;;;;;;;;;4972002;28;20304;-67
2023/04/11 12:08:08;;;;;;;6.97;1.63;;;;;;;;;;4972997;28;20286;-68
2023/04/11 12:10:37;;;;;;;6.28;1.73;;;;;;;;;;4973118;28;20247;-67
2023/04/11 12:13:10;;;;;;;4.93;1.35;;;;;;;;;;4967856;28;20187;-67
2023/04/11 12:15:35;;;;;;;7.78;1.15;;;;;;;;;;4969255;28;20235;-68
2023/04/11 12:18:03;;;;;;;3.53;0.65;;;;;;;;;;4973393;28;20215;-68
2023/04/11 12:20:29;;;;;;;8.50;1.35;;;;;;;;;;4973066;28;20176;-68
2023/04/11 12:22:55;;;;;;;3.80;0.88;;;;;;;;;;4973214;28;20231;-68
2023/04/11 12:25:20;;;;;;;6.07;1.02;;;;;;;;;;4972767;28;20200;-67
2023/04/11 12:27:45;;;;;;;3.35;0.98;;;;;;;;;;4972743;28;20287;-68
2023/04/11 12:30:13;;;;;;;3.08;1.48;;;;;;;;;;4970040;28;20538;-67
2023/04/11 12:32:39;;;;;;;8.82;1.38;;;;;;;;;;4972555;28;20243;-67
2023/04/11 12:35:05;;;;;;;3.13;1.00;;;;;;;;;;4977013;28;20244;-67
2023/04/11 12:37:30;;;;;;;4.38;1.45;;;;;;;;;;4972967;28;20275;-67
2023/04/11 12:39:56;;;;;;;3.45;1.42;;;;;;;;;;4971186;28;20180;-67
2023/04/11 12:42:21;;;;;;;4.97;1.05;;;;;;;;;;4973047;28;20192;-68
2023/04/11 12:44:46;;;;;;;3.20;1.10;;;;;;;;;;4971533;28;20180;-67
2023/04/11 12:47:11;;;;;;;3.08;1.08;;;;;;;;;;4968795;28;20286;-68
2023/04/11 12:49:37;;;;;;;2.97;1.27;;;;;;;;;;4971736;28;20176;-68
2023/04/11 12:52:02;;;;;;;4.30;1.63;;;;;;;;;;4972177;28;20288;-68
2023/04/11 12:54:27;;;;;;;6.85;1.45;;;;;;;;;;4970955;28;20270;-68
2023/04/11 12:56:53;;;;;;;5.30;1.95;;;;;;;;;;4972121;28;20895;-67
2023/04/11 12:59:18;;;;;;;4.82;0.70;;;;;;;;;;4972140;28;20184;-68
2023/04/11 13:01:43;;;;;;;5.50;1.23;;;;;;;;;;4968692;28;20211;-67
2023/04/11 13:04:09;;;;;;;4.55;0.90;;;;;;;;;;4969311;28;20562;-68
2023/04/11 13:06:35;;;;;;;6.78;1.02;;;;;;;;;;4971351;28;20571;-68
2023/04/11 13:09:01;;;;;;;2.13;1.00;;;;;;;;;;4972091;28;20180;-67
2023/04/11 13:11:26;;;;;;;6.80;1.15;;;;;;;;;;4972092;28;20607;-67
2023/04/11 13:13:51;;;;;;;6.38;1.70;;;;;;;;;;4972303;28;20175;-67
2023/04/11 13:16:16;;;;;;;1.58;0.73;;;;;;;;;;4971345;28;20729;-67
2023/04/11 13:18:41;;;;;;;3.92;0.98;;;;;;;;;;4972908;28;20176;-67
2023/04/11 13:21:07;;;;;;;5.65;1.13;;;;;;;;;;4966105;28;20631;-67
2023/04/11 13:23:32;;;;;;;1.63;0.65;;;;;;;;;;4972836;28;20181;-67
2023/04/11 13:25:59;;;;;;;6.15;1.25;;;;;;;;;;4971932;28;20196;-67
2023/04/11 13:28:24;;;;;;;3.45;0.77;;;;;;;;;;4972443;28;20203;-67
2023/04/11 13:30:50;;;;;;;3.13;0.88;;;;;;;;;;4972287;28;20557;-68
2023/04/11 13:33:16;;;;;;;4.32;0.75;;;;;;;;;;4972459;28;20216;-68
2023/04/11 13:35:41;;;;;;;5.57;1.35;;;;;;;;;;4971397;28;20231;-68
2023/04/11 13:38:06;;;;;;;3.85;0.75;;;;;;;;;;4972179;28;20665;-68
2023/04/11 13:40:32;;;;;;;3.63;1.50;;;;;;;;;;4972284;28;20184;-68
2023/04/11 13:42:57;;;;;;;3.65;0.77;;;;;;;;;;4970358;28;20227;-68
2023/04/11 13:45:22;;;;;;;7.93;1.60;;;;;;;;;;4971274;28;20196;-68
2023/04/11 13:47:47;;;;;;;6.35;1.13;;;;;;;;;;4971835;28;20210;-68
2023/04/11 13:50:12;;;;;;;5.82;0.98;;;;;;;;;;4971813;28;20172;-68
2023/04/11 13:52:38;;;;;;;4.05;0.90;;;;;;;;;;4971803;28;20660;-68
2023/04/11 13:55:04;;;;;;;7.97;1.42;;;;;;;;;;4971804;28;20216;-67
2023/04/11 13:57:29;;;;;;;4.72;0.80;;;;;;;;;;4971783;28;20200;-68
2023/04/11 13:59:55;;;;;;;5.93;0.93;;;;;;;;;;4990319;28;20246;-68
2023/04/11 14:02:20;;;;;;;5.35;0.95;;;;;;;;;;4985477;28;20625;-68
2023/04/11 14:04:45;;;;;;;1.55;0.52;;;;;;;;;;4973253;28;20181;-68
2023/04/11 14:07:11;;;;;;;4.18;0.85;;;;;;;;;;4975467;28;20218;-68
2023/04/11 14:09:36;;;;;;;6.43;1.23;;;;;;;;;;4971569;28;20176;-68
2023/04/11 14:12:01;;;;;;;5.45;1.00;;;;;;;;;;4975277;28;20188;-68
2023/04/11 14:14:26;;;;;;;2.78;1.00;;;;;;;;;;4975338;28;20209;-67
2023/04/11 14:16:52;;;;;;;7.85;1.10;;;;;;;;;;4975182;28;20290;-68
2023/04/11 14:19:17;;;;;;;4.13;1.38;;;;;;;;;;4975419;28;20607;-68
2023/04/11 14:21:42;;;;;;;3.95;0.90;;;;;;;;;;4975157;28;20200;-67
2023/04/11 14:24:08;;;;;;;2.97;0.90;;;;;;;;;;4975808;28;20708;-67
2023/04/11 14:26:33;;;;;;;2.95;1.05;;;;;;;;;;4971752;28;20216;-66
2023/04/11 14:28:58;;;;;;;2.95;0.80;;;;;;;;;;4974925;28;20184;-66
2023/04/11 14:31:23;;;;;;;3.22;0.77;;;;;;;;;;4975139;28;20550;-67
2023/04/11 14:33:49;;;;;;;3.47;0.60;;;;;;;;;;4975243;28;20184;-66
2023/04/11 14:36:14;;;;;;;1.98;0.80;;;;;;;;;;4974725;28;20236;-67